createdAt,value
2022-12-23T00:01:04.822Z,76.33
2022-12-23T00:03:33.753Z,76.32
2022-12-23T00:06:09.294Z,75.62
2022-12-23T00:08:36.896Z,75.49
2022-12-23T00:11:04.956Z,75.51
2022-12-23T00:13:51.779Z,75.91
2022-12-23T00:16:18.699Z,75.99
2022-12-23T00:18:48.562Z,75.46
2022-12-23T00:21:17.330Z,75.57
2022-12-23T00:23:48.691Z,75.26
2022-12-23T00:26:24.844Z,74.92
2022-12-23T00:28:51.521Z,75.13
2022-12-23T00:31:19.652Z,75.45
2022-12-23T00:33:47.552Z,75.86
2022-12-23T00:36:15.345Z,76.23
2022-12-23T00:39:02.932Z,76.19
2022-12-23T00:41:48.059Z,75.31
2022-12-23T00:44:15.081Z,74.93
2022-12-23T00:46:41.884Z,75.47
2022-12-23T00:49:27.423Z,74.92
2022-12-23T00:51:54.293Z,74.90
2022-12-23T00:54:44.642Z,74.95
2022-12-23T00:57:11.576Z,74.88
2022-12-23T00:59:38.148Z,74.72
2022-12-23T01:02:26.246Z,74.67
2022-12-23T01:05:11.622Z,74.66
2022-12-23T01:07:38.392Z,74.60
2022-12-23T01:10:05.443Z,74.41
2022-12-23T01:12:35.287Z,74.28
2022-12-23T01:15:02.159Z,73.73
2022-12-23T01:17:31.769Z,73.79
2022-12-23T01:19:58.635Z,74.35
2022-12-23T01:22:27.816Z,74.03
2022-12-23T01:24:56.908Z,73.92
2022-12-23T01:27:26.466Z,74.26
2022-12-23T01:29:55.991Z,74.10
2022-12-23T01:32:22.474Z,74.29
2022-12-23T01:34:49.167Z,73.82
2022-12-23T01:37:16.929Z,74.46
2022-12-23T01:39:43.736Z,74.43
2022-12-23T01:42:51.349Z,75.22
2022-12-23T01:45:27.864Z,75.17
2022-12-23T01:47:57.091Z,74.76
2022-12-23T01:50:34.608Z,74.86
2022-12-23T01:53:08.080Z,74.47
2022-12-23T01:55:43.718Z,74.22
2022-12-23T01:58:15.228Z,74.45
2022-12-23T02:01:00.870Z,74.22
2022-12-23T02:03:44.020Z,74.86
2022-12-23T02:06:31.716Z,74.91
2022-12-23T02:09:17.166Z,75.04
2022-12-23T02:11:55.988Z,74.74
2022-12-23T02:15:02.078Z,74.85
2022-12-23T02:17:50.511Z,74.52
2022-12-23T02:20:30.772Z,74.52
2022-12-23T02:23:18.717Z,74.49
2022-12-23T02:25:48.284Z,74.61
2022-12-23T02:28:37.943Z,74.58
2022-12-23T02:31:19.775Z,74.42
2022-12-23T02:33:51.128Z,74.58
2022-12-23T02:36:17.851Z,74.68
2022-12-23T02:38:48.481Z,74.92
2022-12-23T02:41:21.059Z,74.81
2022-12-23T02:43:47.704Z,74.53
2022-12-23T02:46:20.600Z,74.09
2022-12-23T02:48:56.722Z,74.45
2022-12-23T02:51:26.379Z,74.50
2022-12-23T02:53:55.840Z,74.85
2022-12-23T02:56:24.021Z,75.15
2022-12-23T02:58:58.672Z,75.49
2022-12-23T03:01:30.074Z,75.35
2022-12-23T03:03:56.970Z,75.26
2022-12-23T03:06:35.825Z,75.47
2022-12-23T03:09:02.432Z,74.89
2022-12-23T03:11:41.429Z,75.11
2022-12-23T03:14:18.490Z,74.86
2022-12-23T03:16:45.056Z,74.29
2022-12-23T03:19:14.777Z,74.41
2022-12-23T03:21:44.396Z,74.31
2022-12-23T03:24:31.413Z,74.20
2022-12-23T03:27:06.960Z,73.75
2022-12-23T03:29:52.286Z,73.79
2022-12-23T03:32:20.266Z,73.54
2022-12-23T03:34:48.432Z,73.04
2022-12-23T03:37:19.292Z,72.99
2022-12-23T03:39:48.367Z,73.03
2022-12-23T03:42:24.311Z,73.80
2022-12-23T03:45:19.638Z,73.90
2022-12-23T03:47:46.988Z,73.90
2022-12-23T03:50:15.551Z,73.87
2022-12-23T03:53:00.687Z,73.95
2022-12-23T03:55:35.858Z,73.76
2022-12-23T03:58:24.172Z,73.43
2022-12-23T04:00:55.710Z,73.32
2022-12-23T04:03:26.927Z,72.79
2022-12-23T04:05:57.489Z,72.58
2022-12-23T04:08:30.157Z,72.15
2022-12-23T04:10:57.163Z,72.07
2022-12-23T04:13:23.748Z,71.75
2022-12-23T04:15:50.499Z,71.59
2022-12-23T04:18:17.112Z,71.27
2022-12-23T04:20:43.752Z,71.50
2022-12-23T04:23:10.349Z,71.24
2022-12-23T04:25:36.984Z,70.84
2022-12-23T04:28:03.669Z,70.99
2022-12-23T04:30:34.321Z,70.89
2022-12-23T04:33:01.742Z,70.79
2022-12-23T04:35:28.278Z,70.70
2022-12-23T04:37:56.004Z,70.21
2022-12-23T04:40:22.666Z,70.19
2022-12-23T04:42:49.187Z,70.19
2022-12-23T04:45:17.499Z,70.05
2022-12-23T04:47:44.001Z,69.94
2022-12-23T04:50:15.746Z,69.88
2022-12-23T04:52:43.104Z,69.55
2022-12-23T04:55:10.214Z,69.53
2022-12-23T04:57:36.957Z,69.61
2022-12-23T05:00:04.756Z,69.42
2022-12-23T05:02:31.484Z,69.27
2022-12-23T05:04:58.191Z,68.94
2022-12-23T05:07:25.058Z,68.91
2022-12-23T05:09:51.725Z,68.90
2022-12-23T05:12:18.304Z,68.96
2022-12-23T05:14:45.005Z,68.86
2022-12-23T05:17:11.473Z,68.97
2022-12-23T05:19:38.031Z,68.92
2022-12-23T05:22:04.707Z,68.99
2022-12-23T05:24:34.250Z,68.76
2022-12-23T05:27:00.905Z,68.97
2022-12-23T05:29:27.833Z,68.63
2022-12-23T05:31:54.443Z,68.76
2022-12-23T05:34:21.493Z,68.49
2022-12-23T05:36:48.031Z,68.53
2022-12-23T05:39:14.654Z,68.19
2022-12-23T05:41:41.188Z,68.00
2022-12-23T05:44:07.867Z,68.40
2022-12-23T05:46:37.581Z,68.19
2022-12-23T05:49:04.251Z,67.96
2022-12-23T05:51:30.977Z,68.20
2022-12-23T05:53:59.760Z,68.28
2022-12-23T05:56:28.746Z,68.38
2022-12-23T05:58:55.302Z,68.26
2022-12-23T06:01:21.783Z,68.71
2022-12-23T06:03:48.487Z,68.60
2022-12-23T06:06:15.394Z,68.92
2022-12-23T06:08:44.224Z,68.68
2022-12-23T06:11:13.184Z,68.83
2022-12-23T06:13:39.764Z,68.38
2022-12-23T06:16:08.966Z,68.71
2022-12-23T06:18:37.860Z,68.75
2022-12-23T06:21:04.525Z,68.65
2022-12-23T06:23:31.279Z,68.60
2022-12-23T06:25:58.559Z,68.76
2022-12-23T06:28:25.312Z,68.90
2022-12-23T06:30:55.865Z,68.89
2022-12-23T06:33:22.559Z,68.79
2022-12-23T06:35:49.246Z,69.11
2022-12-23T06:38:15.835Z,68.90
2022-12-23T06:40:42.525Z,69.17
2022-12-23T06:43:10.861Z,69.16
2022-12-23T06:45:41.529Z,69.06
2022-12-23T06:48:08.226Z,69.24
2022-12-23T06:50:34.910Z,69.39
2022-12-23T06:53:01.568Z,69.13
2022-12-23T06:55:30.478Z,69.40
2022-12-23T06:57:57.113Z,69.24
2022-12-23T07:00:26.107Z,68.79
2022-12-23T07:02:56.099Z,69.11
2022-12-23T07:05:22.973Z,68.94
2022-12-23T07:07:49.528Z,68.54
2022-12-23T07:10:19.236Z,68.80
2022-12-23T07:12:50.496Z,68.67
2022-12-23T07:15:17.507Z,68.46
2022-12-23T07:17:44.080Z,68.59
2022-12-23T07:20:12.981Z,68.69
2022-12-23T07:22:39.664Z,68.67
2022-12-23T07:25:06.466Z,68.52
2022-12-23T07:27:33.229Z,68.83
2022-12-23T07:29:59.773Z,69.16
2022-12-23T07:32:26.275Z,68.87
2022-12-23T07:34:52.757Z,69.63
2022-12-23T07:37:19.290Z,70.28
2022-12-23T07:39:47.737Z,70.17
2022-12-23T07:42:43.541Z,70.17
2022-12-23T07:45:03.197Z,70.17
2022-12-23T07:47:29.834Z,70.52
2022-12-23T07:49:56.549Z,69.77
2022-12-23T07:52:25.510Z,68.78
2022-12-23T07:54:52.075Z,68.60
2022-12-23T07:57:18.824Z,68.90
2022-12-23T07:59:45.480Z,68.80
2022-12-23T08:02:12.239Z,68.69
2022-12-23T08:04:46.080Z,68.37
2022-12-23T08:07:13.045Z,68.18
2022-12-23T08:09:39.638Z,68.06
2022-12-23T08:12:08.456Z,68.07
2022-12-23T08:14:34.980Z,67.67
2022-12-23T08:17:02.061Z,67.25
2022-12-23T08:19:28.941Z,66.85
2022-12-23T08:21:55.412Z,66.48
2022-12-23T08:24:24.367Z,66.28
2022-12-23T08:26:53.894Z,66.21
2022-12-23T08:29:20.994Z,65.90
2022-12-23T08:31:47.691Z,65.74
2022-12-23T08:34:14.456Z,65.83
2022-12-23T08:36:41.034Z,65.27
2022-12-23T08:39:11.460Z,65.37
2022-12-23T08:41:43.081Z,65.59
2022-12-23T08:44:09.634Z,65.29
2022-12-23T08:46:36.786Z,65.24
2022-12-23T08:49:04.157Z,65.08
2022-12-23T08:51:31.022Z,65.20
2022-12-23T08:54:01.040Z,65.41
2022-12-23T08:56:29.531Z,65.27
2022-12-23T08:58:56.788Z,65.45
2022-12-23T09:01:24.856Z,64.90
2022-12-23T09:03:51.501Z,65.56
2022-12-23T09:06:26.492Z,65.31
2022-12-23T09:08:55.551Z,65.19
2022-12-23T09:11:23.665Z,65.67
2022-12-23T09:13:50.418Z,65.33
2022-12-23T09:16:17.607Z,65.61
2022-12-23T09:18:44.130Z,65.78
2022-12-23T09:21:13.867Z,65.37
2022-12-23T09:23:40.806Z,65.60
2022-12-23T09:26:08.194Z,65.65
2022-12-23T09:28:34.734Z,65.38
2022-12-23T09:31:10.611Z,65.66
2022-12-23T09:33:37.078Z,65.79
2022-12-23T09:36:04.538Z,65.86
2022-12-23T09:38:31.405Z,65.74
2022-12-23T09:41:16.506Z,65.79
2022-12-23T09:43:53.209Z,65.74
2022-12-23T09:46:24.108Z,65.63
2022-12-23T09:48:53.820Z,65.96
2022-12-23T09:51:22.459Z,65.91
2022-12-23T09:53:59.065Z,65.75
2022-12-23T09:56:40.290Z,65.93
2022-12-23T09:59:07.764Z,65.63
2022-12-23T10:01:49.635Z,66.05
2022-12-23T10:04:16.328Z,66.30
2022-12-23T10:06:45.105Z,66.27
2022-12-23T10:09:13.525Z,66.31
2022-12-23T10:11:41.632Z,66.14
2022-12-23T10:14:14.450Z,66.45
2022-12-23T10:16:43.990Z,66.45
2022-12-23T10:19:33.297Z,66.42
2022-12-23T10:22:06.171Z,66.45
2022-12-23T10:24:40.873Z,66.12
2022-12-23T10:27:13.530Z,66.33
2022-12-23T10:29:40.740Z,66.51
2022-12-23T10:32:26.204Z,66.74
2022-12-23T10:34:53.057Z,66.59
2022-12-23T10:37:27.908Z,66.70
2022-12-23T10:39:54.500Z,66.85
2022-12-23T10:42:32.933Z,66.87
2022-12-23T10:45:18.300Z,66.93
2022-12-23T10:47:55.831Z,66.91
2022-12-23T10:50:35.110Z,67.43
2022-12-23T10:53:03.384Z,67.46
2022-12-23T10:55:35.814Z,67.46
2022-12-23T10:58:23.813Z,67.63
2022-12-23T11:00:55.257Z,67.73
2022-12-23T11:03:26.583Z,67.82
2022-12-23T11:05:54.026Z,67.71
2022-12-23T11:08:21.208Z,68.29
2022-12-23T11:10:48.519Z,67.95
2022-12-23T11:13:26.044Z,68.26
2022-12-23T11:15:53.020Z,68.29
2022-12-23T11:18:20.649Z,68.35
2022-12-23T11:21:16.512Z,67.97
2022-12-23T11:23:43.031Z,68.23
2022-12-23T11:26:12.126Z,67.78
2022-12-23T11:28:40.839Z,67.97
2022-12-23T11:31:12.069Z,67.94
2022-12-23T11:33:48.728Z,67.58
2022-12-23T11:36:19.640Z,68.12
2022-12-23T11:38:50.764Z,68.10
2022-12-23T11:41:22.392Z,67.91
2022-12-23T11:44:12.258Z,67.87
2022-12-23T11:46:39.020Z,68.54
2022-12-23T11:49:06.930Z,69.26
2022-12-23T11:51:33.823Z,69.60
2022-12-23T11:54:01.616Z,70.15
2022-12-23T11:56:29.353Z,70.47
2022-12-23T11:59:03.331Z,70.16
2022-12-23T12:01:29.919Z,70.12
2022-12-23T12:04:06.222Z,70.52
2022-12-23T12:06:33.420Z,71.21
2022-12-23T12:09:01.360Z,71.18
2022-12-23T12:11:45.005Z,71.54
2022-12-23T12:14:19.900Z,71.71
2022-12-23T12:17:02.779Z,71.57
2022-12-23T12:19:32.129Z,72.06
2022-12-23T12:22:10.302Z,72.32
2022-12-23T12:24:40.431Z,72.87
2022-12-23T12:27:10.367Z,73.10
2022-12-23T12:29:42.963Z,73.52
2022-12-23T12:32:15.731Z,73.65
2022-12-23T12:35:02.975Z,73.78
2022-12-23T12:37:42.982Z,73.88
2022-12-23T12:40:35.725Z,74.22
2022-12-23T12:43:25.618Z,74.72
2022-12-23T12:45:58.784Z,75.82
2022-12-23T12:48:25.360Z,76.36
2022-12-23T12:51:02.590Z,75.96
2022-12-23T12:53:30.414Z,76.25
2022-12-23T12:56:00.121Z,76.15
2022-12-23T12:58:26.885Z,76.01
2022-12-23T13:00:53.575Z,75.89
2022-12-23T13:03:29.547Z,75.48
2022-12-23T13:06:13.471Z,75.45
2022-12-23T13:08:52.212Z,75.96
2022-12-23T13:11:30.116Z,77.20
2022-12-23T13:14:02.682Z,77.68
2022-12-23T13:16:29.268Z,77.69
2022-12-23T13:19:00.729Z,78.06
2022-12-23T13:21:46.055Z,77.57
2022-12-23T13:24:21.635Z,77.56
2022-12-23T13:26:54.389Z,77.30
2022-12-23T13:29:34.507Z,77.14
2022-12-23T13:32:01.042Z,76.62
2022-12-23T13:34:33.633Z,76.61
2022-12-23T13:37:17.009Z,75.96
2022-12-23T13:40:04.863Z,75.87
2022-12-23T13:42:35.080Z,75.63
2022-12-23T13:45:03.363Z,75.57
2022-12-23T13:47:30.031Z,75.70
2022-12-23T13:50:04.653Z,76.18
2022-12-23T13:52:38.626Z,76.45
2022-12-23T13:55:05.154Z,76.94
2022-12-23T13:57:44.029Z,77.32
2022-12-23T14:00:16.432Z,77.61
2022-12-23T14:02:49.463Z,77.50
2022-12-23T14:05:34.817Z,77.36
2022-12-23T14:08:04.333Z,76.45
2022-12-23T14:10:31.417Z,77.47
2022-12-23T14:13:05.943Z,76.91
2022-12-23T14:16:04.933Z,77.29
2022-12-23T14:18:46.749Z,77.17
2022-12-23T14:21:13.204Z,77.54
2022-12-23T14:23:39.681Z,77.16
2022-12-23T14:26:06.135Z,77.12
2022-12-23T14:28:51.522Z,77.19
2022-12-23T14:31:35.964Z,77.47
2022-12-23T14:34:07.198Z,77.52
2022-12-23T14:36:33.970Z,77.78
2022-12-23T14:39:12.787Z,77.52
2022-12-23T14:41:48.095Z,77.60
2022-12-23T14:44:19.995Z,77.35
2022-12-23T14:46:46.543Z,77.68
2022-12-23T14:49:38.368Z,77.86
2022-12-23T14:52:19.625Z,77.58
2022-12-23T14:55:06.060Z,77.55
2022-12-23T14:57:33.776Z,77.47
2022-12-23T15:00:01.939Z,77.32
2022-12-23T15:02:34.658Z,77.40
2022-12-23T15:05:01.504Z,77.98
2022-12-23T15:07:34.155Z,77.73
2022-12-23T15:10:05.823Z,78.42
2022-12-23T15:12:33.824Z,78.40
2022-12-23T15:15:03.242Z,78.00
2022-12-23T15:17:29.912Z,78.66
2022-12-23T15:20:05.590Z,78.63
2022-12-23T15:22:32.825Z,78.64
2022-12-23T15:24:59.618Z,78.35
2022-12-23T15:27:29.391Z,78.82
2022-12-23T15:29:57.012Z,78.80
2022-12-23T15:32:24.587Z,78.46
2022-12-23T15:34:52.030Z,78.40
2022-12-23T15:37:24.865Z,78.45
2022-12-23T15:39:57.988Z,78.22
2022-12-23T15:42:31.752Z,78.24
2022-12-23T15:44:58.669Z,78.47
2022-12-23T15:47:29.519Z,78.74
2022-12-23T15:49:57.939Z,78.68
2022-12-23T15:52:24.944Z,78.73
2022-12-23T15:55:01.824Z,78.97
2022-12-23T15:57:28.757Z,78.60
2022-12-23T15:59:55.788Z,78.90
2022-12-23T16:02:59.599Z,78.57
2022-12-23T16:05:38.542Z,78.77
2022-12-23T16:08:10.612Z,78.69
2022-12-23T16:10:37.665Z,79.06
2022-12-23T16:13:04.128Z,78.98
2022-12-23T16:15:32.139Z,79.37
2022-12-23T16:18:11.790Z,79.83
2022-12-23T16:20:49.526Z,79.75
2022-12-23T16:23:17.118Z,79.40
2022-12-23T16:25:52.752Z,79.33
2022-12-23T16:28:24.424Z,78.65
2022-12-23T16:30:56.462Z,77.34
2022-12-23T16:33:25.572Z,76.30
2022-12-23T16:35:53.628Z,75.47
2022-12-23T16:38:21.757Z,75.85
2022-12-23T16:40:49.733Z,75.03
2022-12-23T16:43:16.797Z,74.97
2022-12-23T16:45:44.420Z,75.38
2022-12-23T16:48:20.457Z,75.27
2022-12-23T16:50:47.065Z,75.60
2022-12-23T16:53:13.635Z,75.38
2022-12-23T16:55:46.187Z,75.55
2022-12-23T16:58:16.994Z,75.65
2022-12-23T17:00:44.638Z,75.55
2022-12-23T17:03:15.955Z,75.65
2022-12-23T17:05:42.853Z,75.22
2022-12-23T17:08:09.857Z,75.01
2022-12-23T17:10:36.948Z,75.04
2022-12-23T17:13:03.764Z,73.62
2022-12-23T17:15:30.744Z,72.93
2022-12-23T17:17:57.556Z,72.62
2022-12-23T17:20:24.605Z,72.70
2022-12-23T17:22:58.115Z,72.50
2022-12-23T17:25:26.768Z,71.29
2022-12-23T17:27:53.845Z,71.10
2022-12-23T17:30:22.069Z,70.25
2022-12-23T17:32:57.906Z,70.74
2022-12-23T17:35:25.128Z,70.08
2022-12-23T17:37:52.333Z,69.93
2022-12-23T17:40:19.801Z,69.47
2022-12-23T17:42:47.139Z,69.44
2022-12-23T17:45:24.580Z,69.47
2022-12-23T17:47:51.386Z,69.71
2022-12-23T17:50:17.884Z,69.52
2022-12-23T17:52:44.468Z,68.85
2022-12-23T17:55:16.768Z,68.59
2022-12-23T17:57:43.261Z,68.19
2022-12-23T18:00:10.081Z,68.23
2022-12-23T18:02:39.647Z,67.03
2022-12-23T18:05:18.482Z,66.89
2022-12-23T18:07:45.253Z,66.98
2022-12-23T18:10:19.098Z,65.94
2022-12-23T18:12:47.426Z,66.01
2022-12-23T18:15:24.231Z,66.00
2022-12-23T18:17:51.449Z,67.28
2022-12-23T18:20:19.782Z,68.68
2022-12-23T18:22:47.830Z,69.82
2022-12-23T18:25:19.395Z,70.18
2022-12-23T18:27:46.453Z,70.63
2022-12-23T18:30:13.400Z,70.31
2022-12-23T18:32:40.913Z,70.86
2022-12-23T18:35:27.569Z,70.81
2022-12-23T18:37:54.531Z,70.67
2022-12-23T18:40:21.395Z,71.17
2022-12-23T18:42:48.063Z,71.31
2022-12-23T18:45:23.598Z,71.15
2022-12-23T18:47:50.447Z,70.73
2022-12-23T18:50:17.204Z,70.05
2022-12-23T18:52:43.752Z,69.44
2022-12-23T18:55:12.513Z,69.38
2022-12-23T18:57:39.368Z,68.65
2022-12-23T19:00:07.076Z,68.00
2022-12-23T19:02:34.013Z,68.20
2022-12-23T19:05:00.814Z,67.10
2022-12-23T19:07:27.627Z,67.61
2022-12-23T19:09:54.256Z,67.39
2022-12-23T19:12:20.866Z,67.41
2022-12-23T19:14:47.573Z,67.42
2022-12-23T19:17:14.570Z,67.60
2022-12-23T19:19:41.308Z,67.67
2022-12-23T19:22:08.700Z,67.07
2022-12-23T19:24:35.422Z,66.82
2022-12-23T19:27:02.034Z,66.62
2022-12-23T19:29:28.570Z,67.26
2022-12-23T19:31:56.128Z,66.99
2022-12-23T19:34:22.973Z,66.53
2022-12-23T19:36:49.847Z,66.57
2022-12-23T19:39:18.309Z,66.33
2022-12-23T19:41:45.217Z,65.73
2022-12-23T19:44:11.922Z,65.31
2022-12-23T19:46:38.536Z,65.43
2022-12-23T19:49:05.149Z,65.11
2022-12-23T19:51:32.308Z,65.56
2022-12-23T19:53:59.016Z,65.79
2022-12-23T19:56:29.780Z,65.19
2022-12-23T19:58:57.183Z,65.35
2022-12-23T20:01:25.852Z,65.06
2022-12-23T20:03:53.461Z,64.97
2022-12-23T20:06:22.045Z,65.24
2022-12-23T20:08:48.973Z,64.96
2022-12-23T20:11:23.006Z,64.70
2022-12-23T20:13:53.963Z,65.23
2022-12-23T20:16:21.005Z,64.91
2022-12-23T20:18:47.697Z,65.00
2022-12-23T20:21:14.610Z,64.97
2022-12-23T20:23:41.425Z,65.18
2022-12-23T20:26:08.074Z,65.28
2022-12-23T20:28:34.665Z,65.38
2022-12-23T20:31:04.451Z,65.06
2022-12-23T20:33:31.017Z,65.15
2022-12-23T20:35:57.769Z,65.14
2022-12-23T20:38:24.499Z,65.18
2022-12-23T20:40:51.161Z,65.08
2022-12-23T20:43:18.666Z,65.63
2022-12-23T20:45:46.279Z,65.52
2022-12-23T20:48:13.205Z,66.36
2022-12-23T20:50:41.291Z,66.27
2022-12-23T20:53:08.152Z,66.27
2022-12-23T20:55:39.819Z,66.36
2022-12-23T20:58:25.125Z,66.64
2022-12-23T21:00:52.202Z,65.95
2022-12-23T21:03:25.295Z,65.21
2022-12-23T21:05:56.245Z,65.28
2022-12-23T21:08:22.892Z,64.64
2022-12-23T21:10:53.747Z,64.33
2022-12-23T21:13:20.701Z,63.88
2022-12-23T21:15:47.245Z,63.57
2022-12-23T21:18:14.437Z,63.14
2022-12-23T21:20:41.539Z,62.42
2022-12-23T21:23:08.310Z,61.68
2022-12-23T21:25:35.288Z,61.61
2022-12-23T21:28:01.978Z,61.54
2022-12-23T21:30:28.654Z,61.70
2022-12-23T21:33:00.244Z,61.26
2022-12-23T21:35:26.992Z,61.43
2022-12-23T21:37:53.595Z,61.14
2022-12-23T21:40:20.419Z,61.44
2022-12-23T21:42:50.167Z,61.69
2022-12-23T21:45:16.904Z,61.25
2022-12-23T21:47:43.819Z,61.63
2022-12-23T21:50:10.525Z,61.49
2022-12-23T21:52:37.197Z,61.23
2022-12-23T21:55:04.057Z,61.21
2022-12-23T21:57:30.687Z,61.33
2022-12-23T21:59:57.311Z,61.43
2022-12-23T22:02:23.933Z,61.99
2022-12-23T22:04:50.734Z,61.73
2022-12-23T22:07:17.299Z,61.60
2022-12-23T22:09:43.917Z,61.45
2022-12-23T22:12:10.529Z,61.53
2022-12-23T22:14:37.058Z,60.94
2022-12-23T22:17:03.821Z,61.15
2022-12-23T22:19:30.397Z,60.43
2022-12-23T22:21:57.016Z,59.96
2022-12-23T22:24:25.949Z,60.32
2022-12-23T22:26:52.766Z,60.24
2022-12-23T22:29:19.345Z,60.36
2022-12-23T22:31:50.229Z,60.30
2022-12-23T22:34:18.465Z,60.55
2022-12-23T22:36:45.588Z,59.76
2022-12-23T22:39:19.417Z,60.22
2022-12-23T22:41:46.560Z,60.27
2022-12-23T22:44:13.361Z,60.50
2022-12-23T22:46:40.044Z,60.20
2022-12-23T22:49:06.662Z,60.78
2022-12-23T22:51:33.195Z,60.70
2022-12-23T22:54:02.388Z,60.73
2022-12-23T22:56:29.170Z,60.83
2022-12-23T22:58:56.402Z,60.99
2022-12-23T23:01:24.542Z,60.66
2022-12-23T23:03:56.851Z,60.44
2022-12-23T23:06:25.133Z,60.23
2022-12-23T23:08:51.777Z,60.58
2022-12-23T23:11:18.277Z,60.46
2022-12-23T23:13:44.850Z,60.57
2022-12-23T23:16:11.591Z,60.85
2022-12-23T23:18:41.013Z,60.87
2022-12-23T23:21:08.256Z,60.65
2022-12-23T23:23:35.318Z,60.94
2022-12-23T23:26:01.943Z,60.84
2022-12-23T23:28:28.699Z,61.05
2022-12-23T23:31:16.795Z,60.91
2022-12-23T23:33:42.011Z,61.26
2022-12-23T23:36:08.730Z,61.30
2022-12-23T23:38:35.413Z,61.32
2022-12-23T23:41:02.071Z,60.81
2022-12-23T23:43:28.729Z,60.78
2022-12-23T23:45:57.719Z,61.00
2022-12-23T23:48:24.374Z,60.71
2022-12-23T23:50:51.248Z,61.17
2022-12-23T23:53:18.010Z,61.12
2022-12-23T23:55:44.598Z,60.09
2022-12-23T23:58:13.877Z,60.71
